createdAt,value
2023-01-29T00:01:07.524Z,7.75
2023-01-29T00:04:09.108Z,7.93
2023-01-29T00:07:10.678Z,7.25
2023-01-29T00:10:12.164Z,7.43
2023-01-29T00:13:13.981Z,7.63
2023-01-29T00:16:15.495Z,7.45
2023-01-29T00:19:17.580Z,7.00
2023-01-29T00:22:19.094Z,7.72
2023-01-29T00:25:20.698Z,7.68
2023-01-29T00:28:22.231Z,7.30
2023-01-29T00:31:25.353Z,8.10
2023-01-29T00:34:26.965Z,9.07
2023-01-29T00:37:28.447Z,7.82
2023-01-29T00:40:50.084Z,7.40
2023-01-29T00:44:10.283Z,7.38
2023-01-29T00:47:30.594Z,7.50
2023-01-29T00:50:32.228Z,8.18
2023-01-29T00:53:33.766Z,8.50
2023-01-29T00:56:36.665Z,8.68
2023-01-29T00:59:38.189Z,8.73
2023-01-29T01:02:58.376Z,9.77
2023-01-29T01:06:09.786Z,8.77
2023-01-29T01:09:30.038Z,8.95
2023-01-29T01:12:31.945Z,8.77
2023-01-29T01:15:39.138Z,10.00
2023-01-29T01:18:41.778Z,10.15
2023-01-29T01:21:45.445Z,9.35
2023-01-29T01:24:46.983Z,10.05
2023-01-29T01:27:48.735Z,9.48
2023-01-29T01:30:50.380Z,9.35
2023-01-29T01:33:54.277Z,8.07
2023-01-29T01:36:56.307Z,7.72
2023-01-29T01:39:58.611Z,7.43
2023-01-29T01:43:01.017Z,6.93
2023-01-29T01:46:02.980Z,7.35
2023-01-29T01:49:11.042Z,7.30
2023-01-29T01:52:14.583Z,7.95
2023-01-29T01:55:19.534Z,7.70
2023-01-29T01:58:30.630Z,7.28
2023-01-29T02:01:32.936Z,6.97
2023-01-29T02:04:53.132Z,6.15
2023-01-29T02:08:13.436Z,7.15
2023-01-29T02:11:15.115Z,6.95
2023-01-29T02:14:16.753Z,7.53
2023-01-29T02:17:19.984Z,5.88
2023-01-29T02:20:26.434Z,6.18
2023-01-29T02:23:44.361Z,6.13
2023-01-29T02:27:08.727Z,6.13
2023-01-29T02:30:23.076Z,5.75
2023-01-29T02:33:48.134Z,5.90
2023-01-29T02:37:04.779Z,6.20
2023-01-29T02:40:13.844Z,6.38
2023-01-29T02:43:22.518Z,6.35
2023-01-29T02:46:35.536Z,6.28
2023-01-29T02:50:02.281Z,6.90
2023-01-29T02:53:15.001Z,7.07
2023-01-29T02:56:22.463Z,6.13
2023-01-29T02:59:31.683Z,6.60
2023-01-29T03:02:58.384Z,6.30
2023-01-29T03:06:06.585Z,6.63
2023-01-29T03:09:14.875Z,7.10
2023-01-29T03:12:35.125Z,7.18
2023-01-29T03:15:47.397Z,7.63
2023-01-29T03:19:23.240Z,8.13
2023-01-29T03:22:26.626Z,7.78
2023-01-29T03:25:50.438Z,6.95
2023-01-29T03:29:11.375Z,6.97
2023-01-29T03:32:14.612Z,7.72
2023-01-29T03:35:33.485Z,8.05
2023-01-29T03:38:35.189Z,7.57
2023-01-29T03:41:47.562Z,8.32
2023-01-29T03:45:14.141Z,8.32
2023-01-29T03:48:35.559Z,8.38
2023-01-29T03:52:01.500Z,6.45
2023-01-29T03:55:14.406Z,5.93
2023-01-29T03:58:29.616Z,5.22
2023-01-29T04:01:42.899Z,6.07
2023-01-29T04:04:51.995Z,6.35
2023-01-29T04:08:02.666Z,6.53
2023-01-29T04:11:11.854Z,6.50
2023-01-29T04:14:14.473Z,6.22
2023-01-29T04:17:20.572Z,6.25
2023-01-29T04:20:37.363Z,6.32
2023-01-29T04:23:39.087Z,6.07
2023-01-29T04:26:58.490Z,5.88
2023-01-29T04:30:24.759Z,5.75
2023-01-29T04:33:32.573Z,5.57
2023-01-29T04:36:58.830Z,5.65
2023-01-29T04:40:16.348Z,6.30
2023-01-29T04:43:26.312Z,5.47
2023-01-29T04:46:46.027Z,5.75
2023-01-29T04:49:59.150Z,6.85
2023-01-29T04:53:09.155Z,5.30
2023-01-29T04:56:40.397Z,5.28
2023-01-29T04:59:55.225Z,5.32
2023-01-29T05:02:57.479Z,5.78
2023-01-29T05:06:01.325Z,6.18
2023-01-29T05:09:03.785Z,5.05
2023-01-29T05:12:10.668Z,4.97
2023-01-29T05:15:23.248Z,5.32
2023-01-29T05:18:24.894Z,11.65
2023-01-29T05:21:27.339Z,14.32
2023-01-29T05:24:29.064Z,12.30
2023-01-29T05:27:53.782Z,12.63
2023-01-29T05:33:58.308Z,15.02
2023-01-29T05:36:59.812Z,14.48
2023-01-29T05:40:01.464Z,14.00
2023-01-29T05:43:03.214Z,14.10
2023-01-29T05:46:04.926Z,14.45
2023-01-29T05:49:06.630Z,13.07
2023-01-29T05:52:08.262Z,14.90
2023-01-29T05:55:10.401Z,15.00
2023-01-29T05:58:12.172Z,13.75
2023-01-29T06:01:22.639Z,13.75
2023-01-29T06:04:24.431Z,14.93
2023-01-29T06:07:26.103Z,13.82
2023-01-29T06:10:27.652Z,15.50
2023-01-29T06:13:29.127Z,14.60
2023-01-29T06:16:30.722Z,15.90
2023-01-29T06:19:32.212Z,15.63
2023-01-29T06:22:34.288Z,14.43
2023-01-29T06:25:35.917Z,15.80
2023-01-29T06:28:37.586Z,13.98
2023-01-29T06:31:39.863Z,14.68
2023-01-29T06:34:41.695Z,15.32
2023-01-29T06:37:43.339Z,18.77
2023-01-29T06:40:44.845Z,16.20
2023-01-29T06:43:47.071Z,16.13
2023-01-29T06:46:48.549Z,15.23
2023-01-29T06:49:50.684Z,14.35
2023-01-29T06:52:52.156Z,13.25
2023-01-29T06:55:54.023Z,11.02
2023-01-29T06:58:55.585Z,11.07
2023-01-29T07:01:57.107Z,9.95
2023-01-29T07:04:58.658Z,8.68
2023-01-29T07:08:00.192Z,8.10
2023-01-29T07:11:03.160Z,8.55
2023-01-29T07:14:04.888Z,8.35
2023-01-29T07:17:06.370Z,9.45
2023-01-29T07:20:09.215Z,9.07
2023-01-29T07:23:13.027Z,8.07
2023-01-29T07:26:14.577Z,8.40
2023-01-29T07:29:16.040Z,6.43
2023-01-29T07:32:17.545Z,6.75
2023-01-29T07:35:19.185Z,6.57
2023-01-29T07:38:20.885Z,6.80
2023-01-29T07:41:22.449Z,7.40
2023-01-29T07:44:24.103Z,8.98
2023-01-29T07:47:25.819Z,9.63
2023-01-29T07:50:27.412Z,11.55
2023-01-29T07:53:29.585Z,12.52
2023-01-29T07:56:31.252Z,11.13
2023-01-29T07:59:32.823Z,12.98
2023-01-29T08:02:34.589Z,12.15
2023-01-29T08:05:36.305Z,12.70
2023-01-29T08:08:37.805Z,13.15
2023-01-29T08:11:40.259Z,11.98
2023-01-29T08:14:41.831Z,10.98
2023-01-29T08:17:57.247Z,10.38
2023-01-29T08:21:02.482Z,10.40
2023-01-29T08:24:04.270Z,10.43
2023-01-29T08:27:05.805Z,9.70
2023-01-29T08:30:09.150Z,9.90
2023-01-29T08:33:11.107Z,9.60
2023-01-29T08:36:12.731Z,10.13
2023-01-29T08:39:14.247Z,10.70
2023-01-29T08:42:15.866Z,8.00
2023-01-29T08:45:18.209Z,8.27
2023-01-29T08:48:20.088Z,7.88
2023-01-29T08:51:21.990Z,7.18
2023-01-29T08:54:24.211Z,7.30
2023-01-29T08:57:25.770Z,6.22
2023-01-29T09:00:27.349Z,6.50
2023-01-29T09:03:28.839Z,6.63
2023-01-29T09:06:30.375Z,6.88
2023-01-29T09:09:31.815Z,7.35
2023-01-29T09:12:33.413Z,7.75
2023-01-29T09:15:34.957Z,9.77
2023-01-29T09:18:36.804Z,8.25
2023-01-29T09:21:38.253Z,8.43
2023-01-29T09:24:39.766Z,8.40
2023-01-29T09:27:41.445Z,9.95
2023-01-29T09:30:43.837Z,9.48
2023-01-29T09:33:45.403Z,9.63
2023-01-29T09:36:46.980Z,9.85
2023-01-29T09:39:49.625Z,8.85
2023-01-29T09:42:56.527Z,9.10
2023-01-29T09:46:06.372Z,9.55
2023-01-29T09:49:23.685Z,9.02
2023-01-29T09:52:30.256Z,9.90
2023-01-29T09:55:39.342Z,10.60
2023-01-29T09:58:43.328Z,9.13
2023-01-29T10:02:10.430Z,9.93
2023-01-29T10:05:24.509Z,10.55
2023-01-29T10:08:52.614Z,9.63
2023-01-29T10:12:09.429Z,11.52
2023-01-29T10:15:34.944Z,9.45
2023-01-29T10:18:48.784Z,9.90
2023-01-29T10:22:02.432Z,8.50
2023-01-29T10:25:25.924Z,9.80
2023-01-29T10:28:38.138Z,7.93
2023-01-29T10:31:40.483Z,9.52
2023-01-29T10:35:12.587Z,5.95
2023-01-29T10:38:28.264Z,5.55
2023-01-29T10:41:42.510Z,5.93
2023-01-29T10:44:53.541Z,5.57
2023-01-29T10:48:34.085Z,6.47
2023-01-29T10:51:59.672Z,7.40
2023-01-29T10:55:23.004Z,7.18
2023-01-29T10:58:34.523Z,6.93
2023-01-29T11:01:36.178Z,6.60
2023-01-29T11:04:39.179Z,6.00
2023-01-29T11:07:40.667Z,6.85
2023-01-29T11:10:50.774Z,7.30
2023-01-29T11:14:06.900Z,6.43
2023-01-29T11:17:16.776Z,6.60
2023-01-29T11:20:28.836Z,6.32
2023-01-29T11:23:32.468Z,7.43
2023-01-29T11:26:40.789Z,6.25
2023-01-29T11:29:48.162Z,7.00
2023-01-29T11:33:18.439Z,6.40
2023-01-29T11:36:35.443Z,6.43
2023-01-29T11:39:44.802Z,7.30
2023-01-29T11:42:47.327Z,7.55
2023-01-29T11:45:52.421Z,7.40
2023-01-29T11:48:59.194Z,8.23
2023-01-29T11:52:07.385Z,8.80
2023-01-29T11:55:17.912Z,9.32
2023-01-29T11:58:35.280Z,9.27
2023-01-29T12:01:39.700Z,8.65
2023-01-29T12:04:41.503Z,8.48
2023-01-29T12:07:45.754Z,8.43
2023-01-29T12:13:54.942Z,8.43
2023-01-29T12:16:59.484Z,9.48
2023-01-29T12:20:06.750Z,9.32
2023-01-29T12:23:30.883Z,8.32
2023-01-29T12:26:46.562Z,8.75
2023-01-29T12:30:06.557Z,7.68
2023-01-29T12:33:31.714Z,8.38
2023-01-29T12:36:55.174Z,9.13
2023-01-29T12:39:56.743Z,9.35
2023-01-29T12:43:04.653Z,8.73
2023-01-29T12:46:11.997Z,9.10
2023-01-29T12:49:18.662Z,7.93
2023-01-29T12:52:36.930Z,9.05
2023-01-29T12:55:44.662Z,8.38
2023-01-29T12:58:50.997Z,8.00
2023-01-29T13:01:56.795Z,8.23
2023-01-29T13:05:05.888Z,8.40
2023-01-29T13:08:11.942Z,8.20
2023-01-29T13:11:19.344Z,7.70
2023-01-29T13:14:58.914Z,8.02
2023-01-29T13:18:32.903Z,8.18
2023-01-29T13:21:39.129Z,7.38
2023-01-29T13:24:42.355Z,7.30
2023-01-29T13:27:47.771Z,7.80
2023-01-29T13:31:10.961Z,8.15
2023-01-29T13:34:20.086Z,8.68
2023-01-29T13:37:30.316Z,8.80
2023-01-29T13:40:34.601Z,8.57
2023-01-29T13:43:39.119Z,8.50
2023-01-29T13:46:41.969Z,8.50
2023-01-29T13:49:52.502Z,8.02
2023-01-29T13:53:02.304Z,8.82
2023-01-29T14:00:31.014Z,9.10
2023-01-29T14:04:02.201Z,9.00
2023-01-29T14:07:49.238Z,8.15
2023-01-29T14:11:14.187Z,7.90
2023-01-29T14:15:09.966Z,8.50
2023-01-29T14:18:11.441Z,9.20
2023-01-29T14:21:29.791Z,9.02
2023-01-29T14:24:31.627Z,10.13
2023-01-29T14:27:35.637Z,9.98
2023-01-29T14:30:38.032Z,9.23
2023-01-29T14:33:43.404Z,9.77
2023-01-29T14:36:47.449Z,9.32
2023-01-29T14:39:50.256Z,9.45
2023-01-29T14:43:19.792Z,9.52
2023-01-29T14:46:33.693Z,9.82
2023-01-29T14:50:19.680Z,9.60
2023-01-29T14:53:27.997Z,9.98
2023-01-29T14:56:35.263Z,10.10
2023-01-29T14:59:57.752Z,10.85
2023-01-29T15:03:02.577Z,10.75
2023-01-29T15:06:06.328Z,10.48
2023-01-29T15:09:10.971Z,9.65
2023-01-29T15:12:34.054Z,9.43
2023-01-29T15:16:09.284Z,9.43
2023-01-29T15:19:44.480Z,10.18
2023-01-29T15:25:51.096Z,8.75
2023-01-29T15:29:03.438Z,9.50
2023-01-29T15:32:06.537Z,16.17
2023-01-29T15:35:43.385Z,11.23
2023-01-29T15:38:44.929Z,10.20
2023-01-29T15:41:46.483Z,9.65
2023-01-29T15:44:48.147Z,9.93
2023-01-29T15:47:50.663Z,10.15
2023-01-29T15:50:54.796Z,11.93
2023-01-29T15:56:58.265Z,11.65
2023-01-29T15:59:59.881Z,11.23
2023-01-29T16:03:14.862Z,11.77
2023-01-29T16:06:16.992Z,10.63
2023-01-29T16:09:23.521Z,12.20
2023-01-29T16:12:25.538Z,10.30
2023-01-29T16:15:35.996Z,10.38
2023-01-29T16:18:41.102Z,12.30
2023-01-29T16:21:53.525Z,12.50
2023-01-29T16:24:55.502Z,11.27
2023-01-29T16:28:14.915Z,11.63
2023-01-29T16:31:28.822Z,10.82
2023-01-29T16:34:44.125Z,11.95
2023-01-29T16:37:50.848Z,11.32
2023-01-29T16:41:21.806Z,11.43
2023-01-29T16:44:38.089Z,11.90
2023-01-29T16:47:43.315Z,11.13
2023-01-29T16:50:54.615Z,12.00
2023-01-29T16:54:27.535Z,11.52
2023-01-29T16:57:33.221Z,11.68
2023-01-29T17:00:34.790Z,10.57
2023-01-29T17:03:38.192Z,11.98
2023-01-29T17:06:44.201Z,11.90
2023-01-29T17:09:51.694Z,12.50
2023-01-29T17:13:01.928Z,11.05
2023-01-29T17:16:26.953Z,10.30
2023-01-29T17:19:30.157Z,10.63
2023-01-29T17:22:31.933Z,10.00
2023-01-29T17:25:33.543Z,9.48
2023-01-29T17:28:35.168Z,10.38
2023-01-29T17:31:37.464Z,10.35
2023-01-29T17:34:39.149Z,10.00
2023-01-29T17:37:40.910Z,9.68
2023-01-29T17:40:47.019Z,11.27
2023-01-29T17:43:48.599Z,10.27
2023-01-29T17:46:50.174Z,10.50
2023-01-29T17:49:51.704Z,11.90
2023-01-29T17:52:56.127Z,11.38
2023-01-29T17:55:57.748Z,10.07
2023-01-29T17:58:59.630Z,10.68
2023-01-29T18:02:01.340Z,11.77
2023-01-29T18:05:02.915Z,12.40
2023-01-29T18:08:04.814Z,18.67
2023-01-29T18:11:07.442Z,16.30
2023-01-29T18:14:14.364Z,13.88
2023-01-29T18:17:22.093Z,15.05
2023-01-29T18:20:25.576Z,15.32
2023-01-29T18:23:29.448Z,13.20
2023-01-29T18:26:31.073Z,15.52
2023-01-29T18:29:32.613Z,16.58
2023-01-29T18:32:34.179Z,17.77
2023-01-29T18:35:35.612Z,20.17
2023-01-29T18:38:37.152Z,27.35
2023-01-29T18:41:38.715Z,19.10
2023-01-29T18:44:40.272Z,35.20
2023-01-29T18:47:41.806Z,24.88
2023-01-29T18:50:43.349Z,18.38
2023-01-29T18:53:49.861Z,15.18
2023-01-29T18:57:13.249Z,14.10
2023-01-29T19:00:13.798Z,15.98
2023-01-29T19:03:15.429Z,16.17
2023-01-29T19:06:17.054Z,15.55
2023-01-29T19:09:18.966Z,14.77
2023-01-29T19:12:21.972Z,14.30
2023-01-29T19:15:23.513Z,14.85
2023-01-29T19:18:27.811Z,14.75
2023-01-29T19:21:30.350Z,14.40
2023-01-29T19:24:36.355Z,15.05
2023-01-29T19:27:38.038Z,16.88
2023-01-29T19:30:39.793Z,15.35
2023-01-29T19:33:41.484Z,15.32
2023-01-29T19:36:46.086Z,14.68
2023-01-29T19:39:47.651Z,16.35
2023-01-29T19:42:49.197Z,15.00
2023-01-29T19:45:57.753Z,15.18
2023-01-29T19:48:59.274Z,13.95
2023-01-29T19:52:01.551Z,29.98
2023-01-29T19:55:06.169Z,23.88
2023-01-29T19:58:07.715Z,16.98
2023-01-29T20:01:17.001Z,15.90
2023-01-29T20:04:18.472Z,21.75
2023-01-29T20:07:20.120Z,19.52
2023-01-29T20:10:21.688Z,19.23
2023-01-29T20:13:23.496Z,19.02
2023-01-29T20:16:26.745Z,18.48
2023-01-29T20:19:28.296Z,20.95
2023-01-29T20:22:29.820Z,24.35
2023-01-29T20:25:31.379Z,21.10
2023-01-29T20:28:33.133Z,25.58
2023-01-29T20:31:34.696Z,23.45
2023-01-29T20:34:36.459Z,17.80
2023-01-29T20:37:37.978Z,13.40
2023-01-29T20:40:39.407Z,14.27
2023-01-29T20:43:41.852Z,16.63
2023-01-29T20:46:43.404Z,15.30
2023-01-29T20:49:44.978Z,14.85
2023-01-29T20:52:46.944Z,15.15
2023-01-29T20:55:48.552Z,16.60
2023-01-29T20:58:50.373Z,15.68
2023-01-29T21:01:51.887Z,16.48
2023-01-29T21:04:53.363Z,17.35
2023-01-29T21:07:55.436Z,19.58
2023-01-29T21:10:57.011Z,16.13
2023-01-29T21:13:58.561Z,13.38
2023-01-29T21:17:00.929Z,15.75
2023-01-29T21:20:04.136Z,15.95
2023-01-29T21:23:07.191Z,14.10
2023-01-29T21:26:09.088Z,15.10
2023-01-29T21:29:13.977Z,13.45
2023-01-29T21:32:16.369Z,12.57
2023-01-29T21:35:17.991Z,13.68
2023-01-29T21:38:19.425Z,13.50
2023-01-29T21:41:40.936Z,14.65
2023-01-29T21:44:42.496Z,13.73
2023-01-29T21:47:44.063Z,15.95
2023-01-29T21:50:45.667Z,14.45
2023-01-29T21:53:47.220Z,14.77
2023-01-29T21:56:48.860Z,15.43
2023-01-29T21:59:53.265Z,14.63
2023-01-29T22:02:55.162Z,14.50
2023-01-29T22:05:56.750Z,13.50
2023-01-29T22:08:58.363Z,13.38
2023-01-29T22:12:00.116Z,14.75
2023-01-29T22:15:01.675Z,14.00
2023-01-29T22:18:03.287Z,13.20
2023-01-29T22:21:05.029Z,13.30
2023-01-29T22:24:07.472Z,12.48
2023-01-29T22:27:08.961Z,12.55
2023-01-29T22:30:11.314Z,13.77
2023-01-29T22:33:12.889Z,14.23
2023-01-29T22:36:14.823Z,13.02
2023-01-29T22:39:16.318Z,12.75
2023-01-29T22:42:20.017Z,12.25
2023-01-29T22:45:22.303Z,13.07
2023-01-29T22:48:24.244Z,12.32
2023-01-29T22:51:25.836Z,12.05
2023-01-29T22:54:27.326Z,14.23
2023-01-29T22:57:28.911Z,11.80
2023-01-29T23:00:30.388Z,12.88
2023-01-29T23:03:32.076Z,12.48
2023-01-29T23:06:33.836Z,11.75
2023-01-29T23:09:35.390Z,12.05
2023-01-29T23:12:37.471Z,13.65
2023-01-29T23:15:39.055Z,11.82
2023-01-29T23:18:41.201Z,13.95
2023-01-29T23:21:42.785Z,12.82
2023-01-29T23:24:44.255Z,12.27
2023-01-29T23:27:45.846Z,12.65
2023-01-29T23:30:47.893Z,11.88
2023-01-29T23:33:50.513Z,11.68
2023-01-29T23:36:52.121Z,11.50
2023-01-29T23:39:53.649Z,12.63
2023-01-29T23:42:55.161Z,12.23
2023-01-29T23:45:56.959Z,12.07
2023-01-29T23:48:58.671Z,11.35
2023-01-29T23:52:00.190Z,12.10
2023-01-29T23:55:01.703Z,12.68
2023-01-29T23:58:03.641Z,12.45
